createdAt,value
2022-07-26T00:02:28.677Z,18.64
2022-07-26T00:07:25.039Z,18.65
2022-07-26T00:12:22.805Z,18.60
2022-07-26T00:17:19.319Z,18.58
2022-07-26T00:22:34.343Z,18.59
2022-07-26T00:27:30.805Z,18.55
2022-07-26T00:32:27.278Z,18.50
2022-07-26T00:37:24.945Z,18.48
2022-07-26T00:42:21.559Z,18.41
2022-07-26T00:47:18.228Z,18.41
2022-07-26T00:52:14.827Z,18.41
2022-07-26T00:57:13.366Z,18.36
2022-07-26T01:02:11.077Z,18.32
2022-07-26T01:07:15.039Z,18.27
2022-07-26T01:12:12.728Z,18.23
2022-07-26T01:17:09.202Z,18.16
2022-07-26T01:22:07.137Z,18.02
2022-07-26T01:27:05.444Z,17.91
2022-07-26T01:32:04.042Z,17.82
2022-07-26T01:37:00.757Z,17.73
2022-07-26T01:41:57.213Z,17.69
2022-07-26T01:46:53.590Z,17.65
2022-07-26T01:51:50.026Z,17.63
2022-07-26T01:56:46.494Z,17.54
2022-07-26T02:01:42.885Z,17.48
2022-07-26T02:06:39.252Z,17.40
2022-07-26T02:11:35.923Z,17.39
2022-07-26T02:16:32.336Z,17.33
2022-07-26T02:21:28.809Z,17.19
2022-07-26T02:26:25.156Z,17.11
2022-07-26T02:31:21.634Z,17.00
2022-07-26T02:36:18.433Z,16.95
2022-07-26T02:41:14.849Z,17.00
2022-07-26T02:46:11.345Z,17.10
2022-07-26T02:51:08.014Z,17.15
2022-07-26T02:56:05.024Z,17.16
2022-07-26T03:01:01.383Z,17.13
2022-07-26T03:05:58.041Z,17.12
2022-07-26T03:10:54.373Z,17.09
2022-07-26T03:15:50.834Z,17.07
2022-07-26T03:20:48.013Z,17.10
2022-07-26T03:25:44.403Z,17.11
2022-07-26T03:30:40.924Z,17.06
2022-07-26T03:35:37.336Z,17.06
2022-07-26T03:40:34.063Z,17.08
2022-07-26T03:45:30.763Z,17.07
2022-07-26T03:50:27.240Z,17.08
2022-07-26T03:55:42.439Z,17.10
2022-07-26T04:00:38.913Z,17.07
2022-07-26T04:05:36.173Z,17.06
2022-07-26T04:10:32.619Z,17.05
2022-07-26T04:15:29.031Z,17.07
2022-07-26T04:20:25.496Z,17.08
2022-07-26T04:25:21.929Z,17.09
2022-07-26T04:30:18.359Z,17.09
2022-07-26T04:35:15.704Z,17.07
2022-07-26T04:40:17.041Z,17.08
2022-07-26T04:45:14.005Z,17.10
2022-07-26T04:50:12.076Z,17.11
2022-07-26T04:55:10.359Z,17.09
2022-07-26T05:00:21.286Z,17.06
2022-07-26T05:05:19.061Z,17.03
2022-07-26T05:10:17.437Z,17.03
2022-07-26T05:15:15.518Z,17.09
2022-07-26T05:20:15.599Z,17.20
2022-07-26T05:25:12.019Z,17.22
2022-07-26T05:30:09.954Z,17.35
2022-07-26T05:35:06.867Z,17.41
2022-07-26T05:40:05.309Z,17.53
2022-07-26T05:45:01.669Z,17.57
2022-07-26T05:49:58.181Z,17.54
2022-07-26T05:54:54.593Z,17.57
2022-07-26T05:59:50.990Z,17.62
2022-07-26T06:04:47.774Z,17.61
2022-07-26T06:09:44.376Z,17.73
2022-07-26T06:14:40.798Z,17.91
2022-07-26T06:19:37.627Z,17.88
2022-07-26T06:24:34.000Z,18.00
2022-07-26T06:29:32.494Z,18.11
2022-07-26T06:34:29.562Z,18.15
2022-07-26T06:39:26.152Z,18.15
2022-07-26T06:44:22.898Z,18.25
2022-07-26T06:49:22.760Z,18.18
2022-07-26T06:54:19.578Z,18.29
2022-07-26T06:59:16.006Z,18.70
2022-07-26T07:04:12.573Z,18.88
2022-07-26T07:09:09.085Z,19.08
2022-07-26T07:14:07.330Z,19.22
2022-07-26T07:19:03.898Z,19.34
2022-07-26T07:24:00.224Z,18.98
2022-07-26T07:28:58.535Z,18.44
2022-07-26T07:33:55.093Z,18.27
2022-07-26T07:38:51.892Z,18.73
2022-07-26T07:43:48.398Z,19.29
2022-07-26T07:48:47.529Z,19.42
2022-07-26T07:53:56.372Z,19.79
2022-07-26T07:58:53.815Z,19.71
2022-07-26T08:03:50.960Z,19.32
2022-07-26T08:08:48.454Z,19.61
2022-07-26T08:13:47.980Z,19.98
2022-07-26T08:18:56.290Z,19.76
2022-07-26T08:23:54.506Z,20.11
2022-07-26T08:29:00.076Z,20.13
2022-07-26T08:34:05.606Z,20.23
2022-07-26T08:39:01.953Z,20.32
2022-07-26T08:44:08.272Z,20.37
2022-07-26T08:49:07.057Z,20.27
2022-07-26T08:54:06.219Z,21.09
2022-07-26T08:59:17.146Z,21.37
2022-07-26T09:04:31.824Z,20.97
2022-07-26T09:09:30.178Z,20.69
2022-07-26T09:14:37.341Z,20.69
2022-07-26T09:19:34.906Z,20.40
2022-07-26T09:24:47.598Z,18.74
2022-07-26T09:29:50.429Z,17.11
2022-07-26T09:34:53.196Z,16.78
2022-07-26T09:39:58.158Z,16.52
2022-07-26T09:44:56.025Z,16.34
2022-07-26T09:50:11.731Z,16.33
2022-07-26T09:55:09.334Z,16.42
2022-07-26T10:00:07.750Z,16.52
2022-07-26T10:05:05.673Z,16.61
2022-07-26T10:10:07.145Z,16.76
2022-07-26T10:15:03.920Z,16.83
2022-07-26T10:20:09.405Z,17.08
2022-07-26T10:25:19.868Z,17.32
2022-07-26T10:30:19.280Z,17.55
2022-07-26T10:35:34.393Z,17.50
2022-07-26T10:40:31.600Z,17.58
2022-07-26T10:45:28.324Z,17.74
2022-07-26T10:50:32.826Z,17.44
2022-07-26T10:55:29.278Z,17.50
2022-07-26T11:00:26.280Z,16.82
2022-07-26T11:05:28.670Z,15.93
2022-07-26T11:10:33.526Z,15.80
2022-07-26T11:15:30.003Z,16.01
2022-07-26T11:20:29.796Z,16.69
2022-07-26T11:25:26.551Z,17.33
2022-07-26T11:30:22.964Z,17.72
2022-07-26T11:35:21.362Z,18.14
2022-07-26T11:40:43.442Z,18.50
2022-07-26T11:45:40.358Z,19.09
2022-07-26T11:50:36.991Z,19.71
2022-07-26T11:55:33.342Z,19.62
2022-07-26T12:00:29.838Z,19.43
2022-07-26T12:05:26.471Z,18.73
2022-07-26T12:10:23.350Z,18.42
2022-07-26T12:15:19.680Z,18.39
2022-07-26T12:20:18.031Z,17.70
2022-07-26T12:25:28.274Z,17.32
2022-07-26T12:30:25.736Z,17.20
2022-07-26T12:35:33.515Z,17.19
2022-07-26T12:40:31.680Z,17.13
2022-07-26T12:45:33.082Z,17.25
2022-07-26T12:50:32.745Z,17.20
2022-07-26T12:55:29.451Z,17.39
2022-07-26T13:00:25.909Z,17.48
2022-07-26T13:05:23.688Z,17.28
2022-07-26T13:10:33.130Z,17.03
2022-07-26T13:15:35.054Z,16.78
2022-07-26T13:20:35.955Z,16.86
2022-07-26T13:25:37.031Z,17.01
2022-07-26T13:30:38.561Z,16.99
2022-07-26T13:35:36.341Z,17.18
2022-07-26T13:40:32.719Z,17.42
2022-07-26T13:45:29.794Z,17.56
2022-07-26T13:50:29.775Z,17.59
2022-07-26T13:55:26.254Z,17.83
2022-07-26T14:00:22.775Z,17.89
2022-07-26T14:05:19.276Z,17.35
2022-07-26T14:10:16.235Z,16.98
2022-07-26T14:15:18.082Z,16.42
2022-07-26T14:20:18.256Z,16.26
2022-07-26T14:25:14.902Z,15.68
2022-07-26T14:30:12.099Z,15.77
2022-07-26T14:35:09.327Z,16.18
2022-07-26T14:40:07.305Z,16.58
2022-07-26T14:45:03.991Z,16.92
2022-07-26T14:50:05.817Z,17.23
2022-07-26T14:55:03.499Z,17.84
2022-07-26T14:59:59.959Z,18.30
2022-07-26T15:04:57.126Z,18.73
2022-07-26T15:09:53.456Z,18.96
2022-07-26T15:14:49.787Z,18.82
2022-07-26T15:19:46.123Z,19.04
2022-07-26T15:24:42.515Z,18.86
2022-07-26T15:29:38.927Z,19.36
2022-07-26T15:34:35.459Z,19.03
2022-07-26T15:39:31.869Z,18.93
2022-07-26T15:44:28.342Z,19.06
2022-07-26T15:49:24.763Z,18.88
2022-07-26T15:54:21.260Z,19.33
2022-07-26T15:59:17.654Z,19.70
2022-07-26T16:04:14.270Z,19.18
2022-07-26T16:09:17.884Z,19.23
2022-07-26T16:14:16.426Z,19.14
2022-07-26T16:19:13.518Z,18.91
2022-07-26T16:24:10.254Z,18.78
2022-07-26T16:29:06.613Z,18.93
2022-07-26T16:34:02.966Z,19.06
2022-07-26T16:38:59.583Z,18.82
2022-07-26T16:43:57.074Z,19.01
2022-07-26T16:48:53.569Z,19.02
2022-07-26T16:53:51.658Z,20.44
2022-07-26T16:58:48.201Z,20.50
2022-07-26T17:03:45.098Z,20.05
2022-07-26T17:08:41.742Z,19.80
2022-07-26T17:13:38.794Z,19.33
2022-07-26T17:18:35.628Z,19.00
2022-07-26T17:23:32.179Z,18.45
2022-07-26T17:28:28.643Z,19.26
2022-07-26T17:33:25.238Z,19.80
2022-07-26T17:38:21.641Z,19.12
2022-07-26T17:43:19.452Z,18.98
2022-07-26T17:48:15.787Z,20.44
2022-07-26T17:53:12.156Z,19.71
2022-07-26T17:58:08.497Z,18.90
2022-07-26T18:03:04.856Z,18.40
2022-07-26T18:08:01.406Z,17.93
2022-07-26T18:12:57.782Z,18.26
2022-07-26T18:17:54.154Z,19.35
2022-07-26T18:22:50.693Z,18.94
2022-07-26T18:27:47.163Z,18.59
2022-07-26T18:32:43.470Z,18.93
2022-07-26T18:37:39.874Z,18.36
2022-07-26T18:42:36.701Z,18.31
2022-07-26T18:47:33.168Z,18.10
2022-07-26T18:52:31.986Z,17.57
2022-07-26T18:57:29.003Z,16.95
2022-07-26T19:02:25.726Z,16.69
2022-07-26T19:07:22.223Z,16.64
2022-07-26T19:12:18.579Z,16.54
2022-07-26T19:17:14.970Z,16.54
2022-07-26T19:22:11.477Z,16.47
2022-07-26T19:27:09.404Z,16.35
2022-07-26T19:32:06.188Z,16.08
2022-07-26T19:37:03.000Z,15.80
2022-07-26T19:41:59.419Z,15.63
2022-07-26T19:46:57.894Z,15.53
2022-07-26T19:51:54.466Z,15.45
2022-07-26T19:56:50.910Z,15.22
2022-07-26T20:01:52.094Z,14.92
2022-07-26T20:06:50.850Z,14.86
2022-07-26T20:11:50.788Z,14.85
2022-07-26T20:16:50.541Z,14.71
2022-07-26T20:21:50.660Z,14.50
2022-07-26T20:26:47.745Z,14.48
2022-07-26T20:31:44.791Z,14.56
2022-07-26T20:36:41.202Z,14.57
2022-07-26T20:41:37.691Z,14.55
2022-07-26T20:46:39.930Z,14.57
2022-07-26T20:51:36.559Z,14.56
2022-07-26T20:56:33.785Z,14.56
2022-07-26T21:01:31.291Z,14.45
2022-07-26T21:06:29.191Z,14.40
2022-07-26T21:11:26.154Z,14.35
2022-07-26T21:16:22.592Z,14.27
2022-07-26T21:21:19.012Z,14.13
2022-07-26T21:26:15.480Z,14.02
2022-07-26T21:31:12.575Z,13.82
2022-07-26T21:36:08.901Z,13.70
2022-07-26T21:41:05.271Z,13.61
2022-07-26T21:46:01.775Z,13.59
2022-07-26T21:50:58.194Z,13.62
2022-07-26T21:55:54.567Z,13.73
2022-07-26T22:00:51.076Z,13.82
2022-07-26T22:05:47.431Z,13.78
2022-07-26T22:10:45.360Z,13.70
2022-07-26T22:15:42.329Z,13.64
2022-07-26T22:20:39.472Z,13.57
2022-07-26T22:25:36.786Z,13.54
2022-07-26T22:30:33.253Z,13.48
2022-07-26T22:35:35.009Z,13.53
2022-07-26T22:40:33.306Z,13.53
2022-07-26T22:45:30.985Z,13.53
2022-07-26T22:50:27.920Z,13.62
2022-07-26T22:55:24.296Z,13.65
2022-07-26T23:00:20.963Z,13.60
2022-07-26T23:05:17.627Z,13.60
2022-07-26T23:10:17.052Z,13.55
2022-07-26T23:15:13.523Z,13.60
2022-07-26T23:20:10.191Z,13.60
2022-07-26T23:25:06.849Z,13.58
2022-07-26T23:30:03.519Z,13.64
2022-07-26T23:34:59.854Z,13.57
2022-07-26T23:39:56.247Z,13.49
2022-07-26T23:44:52.582Z,13.49
2022-07-26T23:49:49.154Z,13.49
2022-07-26T23:54:45.534Z,13.53
2022-07-26T23:59:41.895Z,13.54
